FMMIPHNL

Guest
Details From FMMI - Ivato
To PHNL - Honolulu Intl
Flight Number -
Tags Generated
Created
Modified
Stats Distance 9,372 nm / 17,357 km
Max Altitude 0 ft / 0 m
Waypoints 6
Social Downloads 1
Likes 0
Share VATSIM

Download

Looking for another format? Having issues loading an existing format? Contact us
Advertisement - Login to hide

Notes

Generated

Route

FMMI BU KAMBE GUMGE SELIC PHNL

ID Type Via Altitude Latitude Longitude Leg Dist Tot Dist Heading (true) Name
O FMMI APT - 0 ft / 0 m -18.79479˚ 47.46427˚ - 0 nm - -
BU NDB - 0 ft / 0 m 3.45333˚ 117.86500˚ 4365 nm 4365 nm 80° / 69° BUNYU NDB
KAMBE FIX - 0 ft / 0 m 6.18942˚ 124.68962˚ 440 nm 4805 nm 68° / 68° -
GUMGE FIX - 0 ft / 0 m 13.08542˚ 145.19781˚ 1282 nm 6087 nm 70° / 73° -
SELIC FIX - 0 ft / 0 m 21.32386˚ -158.20583˚ 3268 nm 9355 nm 73° / 91° -
O PHNL APT - 0 ft / 0 m 21.31833˚ -157.92332˚ 15 nm 9371 nm 91° / 91° Honolulu Intl

Altitude Profile

Advertisement - Login to hide

Weather


0- 5 10 15 20 25 30 35+ Temperature / ° C

Clouds and Precipitation
Forecast for 2018-05-20 12:00 UTC. Updated an hour ago

Ground ~20,000 ft ~40,000 ft Winds

FMMI

Details ICAO FMMI (TNR)
Name IVATO
Region Comoros, Mayotte, Réunion and Madagascar
Timezone Indian/Antananarivo (UTC+3.0)
Stats Elevation 4,198 ft / 1,280 m (AMSL)
Location -18.796950° 47.478806°
Runways 1
Magnetic Variation 15.172° W

METAR

FMMI 201230Z 15013KT 120V180 9999 SCT020CB 20/10 Q1021 NOSIG

Decode

TAF

TAF FMMI 201100Z 2012/2118 14010KT 9999 SCT017 SCT020= TAF FMEE 201100Z 2012/2118 12018KT 9999 SCT040 TEMPO 2012/2015 12023G35KT BECMG 2014/2016 14015KT PROB40 TEMPO 2021/2103 3000 SHRA BKN020CB PROB30 TEMPO 2021/2103 TSRA BECMG 2104/2106 12018G30KT

Decode

Departure Runways

ID Width Length Bearing (true) Bearing (mag) Surface Threshold Offset Overrun Length
11 148 ft / 45 m 10,167 ft / 3,099 m 98.92° 114.09° Asphalt 0 ft / 0 m 90 ft / 27 m
29 148 ft / 45 m 10,167 ft / 3,099 m 278.91° 294.08° Asphalt 0 ft / 0 m 90 ft / 27 m

PHNL

Details ICAO PHNL (HNL)
Name Honolulu Intl
Region USA (Hawaii)
Timezone Pacific/Honolulu (UTC-10.0)
Stats Elevation 13 ft / 4 m (AMSL)
Location 21.319376° -157.921281°
Runways 4
Magnetic Variation 9.468° E

METAR

PHNL 201153Z 05013KT 10SM FEW026 FEW038 24/18 A3007

Decode

TAF

TAF PHNL 201126Z 2012/2118 06012KT P6SM FEW025 FEW045 FM202000 06017G26KT P6SM FEW025 FEW050 FM210600 06012KT P6SM FEW025 SCT050

Decode

Destination Runways

ID Width Length Bearing (true) Bearing (mag) Surface Threshold Offset Overrun Length
04L 150 ft / 46 m 6,958 ft / 2,121 m 52.84° 43.37° Asphalt 0 ft / 0 m 215 ft / 66 m
04R 150 ft / 46 m 9,008 ft / 2,746 m 52.86° 43.39° Asphalt 0 ft / 0 m 200 ft / 61 m
08L 150 ft / 46 m 12,285 ft / 3,744 m 90.00° 80.53° Asphalt 0 ft / 0 m 1,000 ft / 305 m
08R 200 ft / 61 m 11,985 ft / 3,653 m 90.00° 80.53° Asphalt 0 ft / 0 m 700 ft / 213 m
22L 150 ft / 46 m 9,008 ft / 2,746 m 232.86° 223.39° Asphalt 0 ft / 0 m 215 ft / 66 m
22R 150 ft / 46 m 6,958 ft / 2,121 m 232.85° 223.38° Asphalt 0 ft / 0 m 0 ft / 0 m
26L 200 ft / 61 m 11,985 ft / 3,653 m 270.01° 260.54° Asphalt 0 ft / 0 m 700 ft / 213 m
26R 150 ft / 46 m 12,285 ft / 3,744 m 270.01° 260.54° Asphalt 0 ft / 0 m 655 ft / 200 m

Approach Navaids

Runway Type Ident Frequency Range Bearing (true) Bearing (mag) Slope Elevation
04R Localiser IIUM 110.50 MHz 18 nm / 33 km 52.86° 43.39° - 5 ft / 2 m (AMSL)
04R Glidescope IIUM 110.50 MHz 10 nm / 19 km 52.86° 43.39° 3.00° 6 ft / 2 m (AMSL)
04R DME IIUM 110.50 MHz 18 nm / 33 km - - - 21 ft / 6 m (AMSL)
08L Localiser IHNL 111.70 MHz 18 nm / 33 km 90.01° 80.54° - 10 ft / 3 m (AMSL)
08L Glidescope IHNL 111.70 MHz 10 nm / 19 km 90.00° 80.54° 3.00° 12 ft / 4 m (AMSL)
26L Localiser IEPC 109.10 MHz 18 nm / 33 km 315.00° 305.53° - 13 ft / 4 m (AMSL)
26L DME IEPC 109.10 MHz 18 nm / 33 km - - - 13 ft / 4 m (AMSL)